Add date Part number Description Manufacture PDF
01-17-2017 GN2012 377 保 守保守 予 廃止最h Panasonic GN2012 datasheet
01-17-2017 175BGQ030J SCHOTTKY RECTIFIER Bulletin PD-209 International Rectifier 175BGQ030J datasheet
01-17-2017 HSD062IDW1-A Document Title Document No. HannSt HannStar HSD062IDW1-A datasheet
01-17-2017 SHX-H062-01 三和鑫(香港)有限公司 SUNHE SUNHE XIN SHX-H062-01 datasheet
01-17-2017 PT6913A DESCRIPTION PT6913A/B is a special PTC PT6913A datasheet
01-17-2017 STK401-040 Ordering number: EN 4679A Thick Fi Sanyo Semicon Device STK401-040 datasheet
01-17-2017 PSCQ-2-0.455 Plug-In Power Splitter/Combiner 2 W Mini-Circuits PSCQ-2-0.455 datasheet
01-17-2017 LM2936-3.3 LM2936-3.3 Ultra-Low Quiescent Curr National Semiconductor LM2936-3.3 datasheet
01-17-2017 LM2936-3.0 LM2936-3.0 Ultra-Low Quiescent Curr National Semiconductor LM2936-3.0 datasheet
01-17-2017 LM2935 Order this document by LM2935/D Lo Motorola LM2935 datasheet
01-17-2017 MC1310 Motorola MC1310 datasheet
01-17-2017 TC511664BZ-10 Toshiba TC511664BZ-10 datasheet
01-17-2017 TC511664BJ-10 Toshiba TC511664BJ-10 datasheet
01-17-2017 TC511664BZ-80 Toshiba TC511664BZ-80 datasheet
01-17-2017 TC511664BJ-80 Toshiba TC511664BJ-80 datasheet
01-17-2017 TC5116400FT-60 .comwww..com www.DataShe Toshiba TC5116400FT-60 datasheet
01-17-2017 TC5116400FT-70 .comwww..com www.DataShe Toshiba TC5116400FT-70 datasheet
01-17-2017 TC5116400J-70 .comwww..com www.DataShe Toshiba TC5116400J-70 datasheet
01-17-2017 TC5116400BST-70 .comwww..com www.DataShe Toshiba TC5116400BST-70 datasheet
01-17-2017 TC5116400J-60 .comwww..com www.DataShe Toshiba TC5116400J-60 datasheet
01-17-2017 TC5116400BST-60 .comwww..com www.DataShe Toshiba TC5116400BST-60 datasheet
01-17-2017 TC5116400BSJ-60 .comwww..com www.DataShe Toshiba TC5116400BSJ-60 datasheet
01-17-2017 TC5116400BSJ-70 .comwww..com www.DataShe Toshiba TC5116400BSJ-70 datasheet
01-17-2017 TC511402AZ-60 Toshiba Semiconductor TC511402AZ-60 datasheet
01-17-2017 TC511402ASJ-60 Toshiba Semiconductor TC511402ASJ-60 datasheet
01-17-2017 TC511402AJ-60 Toshiba Semiconductor TC511402AJ-60 datasheet
01-17-2017 TC511402AP-60 Toshiba Semiconductor TC511402AP-60 datasheet
01-17-2017 TC514101J-80 www..com www. Toshiba TC514101J-80 datasheet
01-17-2017 TC514101AZ-50 www..com www. Toshiba TC514101AZ-50 datasheet
01-17-2017 TC514101ASJ-50 www..com www. Toshiba TC514101ASJ-50 datasheet
01-17-2017 TC514260BFT-80 www..com www. Toshiba TC514260BFT-80 datasheet
01-17-2017 TC514260BFT-70 www..com www. Toshiba TC514260BFT-70 datasheet
01-17-2017 TC514102Z-10 www..com www. Toshiba TC514102Z-10 datasheet
01-17-2017 TC514102J-10 www..com www. Toshiba TC514102J-10 datasheet
01-17-2017 TC514102Z-80 www..com www. Toshiba TC514102Z-80 datasheet
01-17-2017 TC514102J-80 www..com www. Toshiba TC514102J-80 datasheet
01-17-2017 TC514102AZ-60 www..com www. Toshiba TC514102AZ-60 datasheet
01-17-2017 TC514102AJ-60 www..com www. Toshiba TC514102AJ-60 datasheet
01-17-2017 TC514102ASJ-60 www..com www. Toshiba TC514102ASJ-60 datasheet
01-17-2017 TC514102AP-60 www..com www. Toshiba TC514102AP-60 datasheet
01-17-2017 TC514101Z-80 www..com www. Toshiba TC514101Z-80 datasheet
01-17-2017 TC514101Z-10 www..com www. Toshiba TC514101Z-10 datasheet
01-17-2017 TC514101J-10 www..com www. Toshiba TC514101J-10 datasheet
01-17-2017 TC514101AJ-50 www..com www. Toshiba TC514101AJ-50 datasheet
01-17-2017 TC514101AP-50 www..com www. Toshiba TC514101AP-50 datasheet
01-17-2017 TC514100Z-10 www..com www. Toshiba TC514100Z-10 datasheet
01-17-2017 TC514100J-10 www..com www. Toshiba TC514100J-10 datasheet
01-17-2017 TC514100Z-80 www..com www. Toshiba TC514100Z-80 datasheet
01-17-2017 TC514100J-80 www..com www. Toshiba TC514100J-80 datasheet
01-17-2017 TC514100AZL-10 www..com www. Toshiba TC514100AZL-10 datasheet
01-17-2017 TC514100AJL-10 www..com www. Toshiba TC514100AJL-10 datasheet
01-17-2017 TC514100ASJL-10 www..com www. Toshiba TC514100ASJL-10 datasheet
01-17-2017 TC514100APL-10 www..com www. Toshiba TC514100APL-10 datasheet
01-17-2017 TC514100AZL-80 www..com www. Toshiba TC514100AZL-80 datasheet
01-17-2017 TC514100AJL-80 www..com www. Toshiba TC514100AJL-80 datasheet
01-17-2017 TC514100ASJL-80 www..com www. Toshiba TC514100ASJL-80 datasheet
01-17-2017 TC514100APL-80 www..com www. Toshiba TC514100APL-80 datasheet
01-17-2017 TC514100AZL-70 www..com www. Toshiba TC514100AZL-70 datasheet
01-17-2017 TC514100AJL-70 www..com www. Toshiba TC514100AJL-70 datasheet
01-17-2017 TC514100ASJL-70 www..com www. Toshiba TC514100ASJL-70 datasheet
01-17-2017 TC514100APL-70 www..com www. Toshiba TC514100APL-70 datasheet
01-17-2017 TC5118165BFT-70 www..com www.DataSheet4 Toshiba TC5118165BFT-70 datasheet
01-17-2017 TC5118165BFT-60 www..com www.DataSheet4 Toshiba TC5118165BFT-60 datasheet
01-17-2017 TC5118165BJ-70 www..com www.DataSheet4 Toshiba TC5118165BJ-70 datasheet
01-17-2017 TC5118165BJ-60 www..com www.DataSheet4 Toshiba TC5118165BJ-60 datasheet
01-17-2017 TC5117400BST-70 www..com TOSHIBA TC5117 Toshiba Semiconductor TC5117400BST-70 datasheet
01-17-2017 TC5117400BST-60 www..com TOSHIBA TC5117 Toshiba Semiconductor TC5117400BST-60 datasheet
01-17-2017 TC5117400BSJ-70 www..com TOSHIBA TC5117 Toshiba Semiconductor TC5117400BSJ-70 datasheet
01-17-2017 TC5117400BSJ-60 www..com TOSHIBA TC5117 Toshiba Semiconductor TC5117400BSJ-60 datasheet
01-17-2017 TC514400ASJ-60 www..com www. Toshiba TC514400ASJ-60 datasheet
01-17-2017 TC514400AZ-60 www..com www. Toshiba TC514400AZ-60 datasheet
01-17-2017 TC514400AP-60 www..com www. Toshiba TC514400AP-60 datasheet
01-17-2017 TC514400AJ-60 www..com www. Toshiba TC514400AJ-60 datasheet
01-17-2017 175BGQ030 SCHOTTKY RECTIFIER Bulletin PD-209 International Rectifier 175BGQ030 datasheet
01-17-2017 AD5700-1 Data Sheet Low Power HART Modem AD Analog Devices AD5700-1 datasheet
01-17-2017 AD5750-1 Data Sheet Industrial Current/Volt Analog Devices AD5750-1 datasheet
01-17-2017 AD5750-2 Data Sheet Industrial Current/Volt Analog Devices AD5750-2 datasheet
01-17-2017 AD500-9-400M-TO5 First Sensor APD Hybrid Series Data First Sensor AD500-9-400M-TO5 datasheet
01-17-2017 AD500-9 AD500-9 TO52S1F2 Avalanche Photodi Silicon Sensor AD500-9 datasheet
01-17-2017 AD500-9 # 500031 First Sensor APD Data She First Sensor AD500-9 datasheet
01-17-2017 AD5755-1 Data Sheet Quad Channel, 16-Bit, S Analog Devices AD5755-1 datasheet
01-17-2017 XC62FP x CMOS Low Power Consumption x Smal Torex Semiconductor XC62FP datasheet
01-17-2017 XC62FP5002 x CMOS Low Power Consumption x Smal Torex Semiconductor XC62FP5002 datasheet
01-17-2017 XC62FP4002 x CMOS Low Power Consumption x Smal Torex Semiconductor XC62FP4002 datasheet
01-17-2017 XC62FP3002 x CMOS Low Power Consumption x Smal Torex Semiconductor XC62FP3002 datasheet
01-17-2017 XC62FP2002 x CMOS Low Power Consumption x Smal Torex Semiconductor XC62FP2002 datasheet
01-17-2017 AD5823-1 ADI Confidential 10-Bit VCM Driver Analog Devices AD5823-1 datasheet
01-17-2017 CM8363-B1300BA-E CAMERA MODULE CM8363-B1300BA-E Vers TRULY CM8363-B1300BA-E datasheet
01-17-2017 TC51832P-85 TOSHIBA MUS MEMORY PRODUClI 32,768 Toshiba TC51832P-85 datasheet
01-17-2017 TC51832P-10 TOSHIBA MUS MEMORY PRODUClI 32,768 Toshiba TC51832P-10 datasheet
01-17-2017 TC51832P-12 TOSHIBA MUS MEMORY PRODUClI 32,768 Toshiba TC51832P-12 datasheet
01-17-2017 TC51832SP-85 Toshiba TC51832SP-85 datasheet
01-17-2017 TC51832SP-10 TOSHIBA MUS MEMORY PRODUClI 32,768 Toshiba TC51832SP-10 datasheet
01-17-2017 TC51832SP-12 Toshiba TC51832SP-12 datasheet
01-17-2017 TC51832F-85 Toshiba TC51832F-85 datasheet
01-17-2017 TC51832F-10 Toshiba TC51832F-10 datasheet
01-17-2017 TC51832F-12 TOSHIBA MUS MEMORY PRODUClI 32,768 Toshiba TC51832F-12 datasheet
01-17-2017 TC51832SPL-85 TOSHIBA MUS MEMORY PRODUClI 32,768 Toshiba TC51832SPL-85 datasheet
01-17-2017 TC51832SPL-10 Toshiba TC51832SPL-10 datasheet
01-17-2017 TC51832SPL-12 Toshiba TC51832SPL-12 datasheet
01-17-2017 TC51832FL-85 Toshiba TC51832FL-85 datasheet
01-17-2017 TC51832FL-10 Toshiba TC51832FL-10 datasheet
01-17-2017 TC51832FL-12 Toshiba TC51832FL-12 datasheet
01-17-2017 MX105A DATA BULLETIN MX105A Tone Detector CML MX105A datasheet
01-17-2017 2SK425 NEC 2SK425 datasheet
01-17-2017 TC514800AJLL-80 www..com www.DataSheet4 Toshiba TC514800AJLL-80 datasheet
01-17-2017 TC514800AJLL-70 www..com www.DataSheet4 Toshiba TC514800AJLL-70 datasheet
01-17-2017 TC514800AFTLL-80 www..com www.DataSheet4 Toshiba TC514800AFTLL-80 datasheet
01-17-2017 TC514800AFTLL-70 www..com www.DataSheet4 Toshiba TC514800AFTLL-70 datasheet
01-17-2017 TC514800AZ-80 www..com www.DataSheet4 Toshiba TC514800AZ-80 datasheet
01-17-2017 TC514800AZ-70 www..com www.DataSheet4 Toshiba TC514800AZ-70 datasheet
01-17-2017 TC514800AJ-80 www..com www.DataSheet4 Toshiba TC514800AJ-80 datasheet
01-17-2017 TC514800AJ-70 www..com www.DataSheet4 Toshiba TC514800AJ-70 datasheet
01-17-2017 TC514800AFT-80 www..com www.DataSheet4 Toshiba TC514800AFT-80 datasheet
01-17-2017 TC514800AFT-70 www..com www.DataSheet4 Toshiba TC514800AFT-70 datasheet
01-17-2017 TC514410Z-10 www..com www. Toshiba TC514410Z-10 datasheet
01-17-2017 TC514410Z-80 www..com www. Toshiba TC514410Z-80 datasheet
01-17-2017 TC514410J-10 www..com www. Toshiba TC514410J-10 datasheet
01-17-2017 TC514410J-80 www..com www. Toshiba TC514410J-80 datasheet
01-17-2017 TC514410AZ-60 www..com www. Toshiba TC514410AZ-60 datasheet
01-17-2017 TC514410ASJ-60 www..com www. Toshiba TC514410ASJ-60 datasheet
01-17-2017 TC514410AJ-60 www..com www. Toshiba TC514410AJ-60 datasheet
01-17-2017 TC514410AP-60 www..com www. Toshiba TC514410AP-60 datasheet
01-17-2017 TC514402Z-10 www..com www. Toshiba TC514402Z-10 datasheet
01-17-2017 TC514402Z-80 www..com www. Toshiba TC514402Z-80 datasheet
01-17-2017 TC514402J-10 www..com www. Toshiba TC514402J-10 datasheet
01-17-2017 TC514402J-80 www..com www. Toshiba TC514402J-80 datasheet
01-17-2017 TC514402AZ-60 www..com www. Toshiba TC514402AZ-60 datasheet
01-17-2017 TC514402ASJ-60 www..com www. Toshiba TC514402ASJ-60 datasheet
01-17-2017 TC514402AJ-60 www..com www. Toshiba TC514402AJ-60 datasheet
01-17-2017 TC514402AP-60 www..com www. Toshiba TC514402AP-60 datasheet
01-17-2017 TC514400Z-10 www..com www. Toshiba TC514400Z-10 datasheet
01-17-2017 TC514400Z-80 www..com www. Toshiba TC514400Z-80 datasheet
01-17-2017 TC514400J-10 www..com www. Toshiba TC514400J-10 datasheet
01-17-2017 TC514400J-80 www..com www. Toshiba TC514400J-80 datasheet
01-17-2017 PT6913B DESCRIPTION PT6913A/B is a special PTC PT6913B datasheet
01-17-2017 TC514260BJ-80 www..com www. Toshiba TC514260BJ-80 datasheet
01-17-2017 FTR-MY FTR-K1 SERIES POWER RELAY 1 POLE - Fujitsu FTR-MY datasheet
01-17-2017 DU1501 特点 ¾ 内置500V高压MOSFET ¾ Duty-Cycle Semiconductor DU1501 datasheet
01-17-2017 DU2702 特点  输入电压范围10~100 Duty-Cycle Semiconductor DU2702 datasheet
01-17-2017 DU8633 特点 ¾ 内置600V高压MOSFET ¾ Duty-Cycle Semiconductor DU8633 datasheet
01-17-2017 DU8623 特点  内置500V高压MOSFET Duty-Cycle Semiconductor DU8623 datasheet
01-17-2017 DU8608 特点 ¾ TRUEC2闭环恒流控制 Duty-Cycle Semiconductor DU8608 datasheet
01-17-2017 DU8966 特点 ¾ TRUEC2闭环恒流控制 Duty-Cycle Semiconductor DU8966 datasheet
01-17-2017 DU1763 DU1763 兼容可控硅调光器三 Duty-Cycle Semiconductor DU1763 datasheet
01-17-2017 DU1703 特点 ¾ 内置三通道500V高压 Duty-Cycle Semiconductor DU1703 datasheet
01-17-2017 DU1502 特点 ¾ 内置500V高压MOSFET ¾ Duty-Cycle Semiconductor DU1502 datasheet
01-17-2017 DU8968 特点 ¾ 专利的DADimming数模 Duty-Cycle Semiconductor DU8968 datasheet
01-17-2017 DU8933 DU8933 高压高功率因数中等 Duty-Cycle Semiconductor DU8933 datasheet
01-17-2017 TC514260BJ-70 www..com www. Toshiba TC514260BJ-70 datasheet


The site has been moved : DatasheetsPDF.com
Since 2005 - HOME - Link US - All - Contact Us -